Time;durP1;ratioP1;P1;durP2;ratioP2;P2;SDS_P1;SDS_P2;PMS_P1;PMS_P2;Temp;Humidity;BMP_temperature;BMP_pressure;BME280_temperature;BME280_humidity;BME280_pressure;Samples;Min_cycle;Max_cycle;Signal;HPM_P1;HPM_P2
2024/05/03 00:02:20;;;;;;;;;;;;;;;13.53;100.00;100905.00;5423418;26;19972;-61
2024/05/03 00:04:45;;;;;;;;;;;;;;;13.39;100.00;100915.41;5420261;26;20281;-60
2024/05/03 00:07:11;;;;;;;;;;;;;;;13.54;100.00;100906.81;5430985;26;19959;-60
2024/05/03 00:09:36;;;;;;;;;;;;;;;13.47;100.00;100912.91;5425298;26;19985;-61
2024/05/03 00:12:01;;;;;;;;;;;;;;;13.54;100.00;100906.81;5434538;26;19944;-60
2024/05/03 00:14:26;;;;;;;;;;;;;;;13.43;100.00;100903.97;5417613;26;19986;-61
2024/05/03 00:16:51;;;;;;;;;;;;;;;13.36;100.00;100906.47;5426716;26;19935;-60
2024/05/03 00:19:17;;;;;;;;;;;;;;;13.39;100.00;100901.22;5442116;26;19927;-63
2024/05/03 00:21:42;;;;;;;;;;;;;;;13.30;100.00;100898.41;5424009;26;19929;-63
2024/05/03 00:24:07;;;;;;;;;;;;;;;13.21;100.00;100902.69;5416764;26;19936;-63
2024/05/03 00:26:32;;;;;;;;;;;;;;;13.22;100.00;100896.50;5416518;26;19986;-61
2024/05/03 00:28:57;;;;;;;;;;;;;;;13.14;100.00;100895.44;5443677;26;20356;-63
2024/05/03 00:31:23;;;;;;;;;;;;;;;13.11;100.00;100895.38;5425221;26;20071;-61
2024/05/03 00:33:48;;;;;;;;;;;;;;;13.14;100.00;100897.22;5436443;26;20009;-60
2024/05/03 00:36:13;;;;;;;;;;;;;;;13.08;100.00;100890.00;5432401;26;19960;-63
2024/05/03 00:38:38;;;;;;;;;;;;;;;13.09;100.00;100899.75;5444180;26;19977;-61
2024/05/03 00:41:03;;;;;;;;;;;;;;;12.90;100.00;100905.56;5429885;26;19960;-61
2024/05/03 00:43:29;;;;;;;;;;;;;;;12.99;100.00;100902.22;5446349;26;19990;-61
2024/05/03 00:45:55;;;;;;;;;;;;;;;12.96;100.00;100903.03;5447497;26;19968;-61
2024/05/03 00:48:20;;;;;;;;;;;;;;;12.90;100.00;100905.56;5421636;26;19963;-61
2024/05/03 00:50:46;;;;;;;;;;;;;;;12.79;100.00;100912.41;5461499;26;19963;-60
2024/05/03 00:53:12;;;;;;;;;;;;;;;12.77;100.00;100906.19;5417096;26;19998;-62
2024/05/03 00:55:37;;;;;;;;;;;;;;;12.72;100.00;100910.50;5418240;26;20325;-62
2024/05/03 00:58:03;;;;;;;;;;;;;;;12.75;100.00;100900.84;5454567;26;19935;-61
2024/05/03 01:00:29;;;;;;;;;;;;;;;12.64;100.00;100912.09;5479022;26;20021;-62
2024/05/03 01:02:55;;;;;;;;;;;;;;;12.60;100.00;100904.94;5447866;26;19940;-61
2024/05/03 01:05:20;;;;;;;;;;;;;;;12.60;100.00;100899.63;5423817;26;19979;-60
2024/05/03 01:07:45;;;;;;;;;;;;;;;12.60;100.00;100899.63;5424677;26;19935;-60
2024/05/03 01:10:10;;;;;;;;;;;;;;;12.50;100.00;100896.75;5462171;26;20052;-60
2024/05/03 01:12:36;;;;;;;;;;;;;;;12.49;100.00;100900.28;5445467;26;20284;-60
2024/05/03 01:15:07;;;;;;;;;;;;;;;12.55;100.00;100896.88;5445839;26;19936;-60
2024/05/03 01:17:32;;;;;;;;;;;;;;;12.53;100.00;100899.50;5445938;26;19981;-61
2024/05/03 01:19:57;;;;;;;;;;;;;;;12.54;100.00;100903.94;5431823;26;19959;-61
2024/05/03 01:22:23;;;;;;;;;;;;;;;12.50;100.00;100893.22;5455702;26;19928;-63
2024/05/03 01:24:48;;;;;;;;;;;;;;;12.57;100.00;100894.25;5446792;26;19928;-63
2024/05/03 01:27:13;;;;;;;;;;;;;;;12.45;100.00;100885.19;5447155;26;19939;-62
2024/05/03 01:29:39;;;;;;;;;;;;;;;12.47;100.00;100888.75;5442415;26;19975;-62
2024/05/03 01:32:04;;;;;;;;;;;;;;;12.53;100.00;100894.19;5446332;26;20475;-62
2024/05/03 01:34:29;;;;;;;;;;;;;;;12.49;100.00;100892.31;5442530;26;20250;-61
2024/05/03 01:36:54;;;;;;;;;;;;;;;12.47;100.00;100887.84;5423556;26;20017;-60
2024/05/03 01:39:20;;;;;;;;;;;;;;;12.46;100.00;100892.28;5382732;26;19933;-62
2024/05/03 01:41:45;;;;;;;;;;;;;;;12.33;100.00;100879.59;5468526;26;19928;-61
2024/05/03 01:44:10;;;;;;;;;;;;;;;12.31;100.00;100881.31;5445407;26;19994;-61
2024/05/03 01:46:35;;;;;;;;;;;;;;;12.36;100.00;100884.97;5446331;26;19928;-62
2024/05/03 01:49:00;;;;;;;;;;;;;;;12.39;100.00;100887.69;5460571;26;20038;-61
2024/05/03 01:51:25;;;;;;;;;;;;;;;12.42;100.00;100885.13;5481215;26;20518;-61
2024/05/03 01:53:51;;;;;;;;;;;;;;;12.42;100.00;100885.13;5441251;26;19933;-60
2024/05/03 01:56:16;;;;;;;;;;;;;;;12.36;100.00;100890.28;5467486;26;20367;-63
2024/05/03 01:58:41;;;;;;;;;;;;;;;12.37;100.00;100892.06;5455778;26;19958;-61
2024/05/03 02:01:06;;;;;;;;;;;;;;;12.43;100.00;100884.25;5425867;26;19936;-63
2024/05/03 02:03:32;;;;;;;;;;;;;;;12.50;100.00;100880.84;5437192;26;19978;-62
2024/05/03 02:05:57;;;;;;;;;;;;;;;12.42;100.00;100879.81;5445077;26;19933;-61
2024/05/03 02:08:22;;;;;;;;;;;;;;;12.39;100.00;100882.41;5445904;26;19981;-61
2024/05/03 02:10:47;;;;;;;;;;;;;;;12.31;100.00;100883.97;5408290;26;19929;-61
2024/05/03 02:13:13;;;;;;;;;;;;;;;12.34;100.00;100886.69;5423073;26;19963;-61
2024/05/03 02:15:38;;;;;;;;;;;;;;;12.36;100.00;100882.31;5440814;26;19985;-63
2024/05/03 02:18:03;;;;;;;;;;;;;;;12.37;100.00;100889.41;5436088;26;19929;-60
2024/05/03 02:20:28;;;;;;;;;;;;;;;12.44;100.00;100878.09;5431706;26;19936;-60
2024/05/03 02:22:53;;;;;;;;;;;;;;;12.40;100.00;100886.84;5422670;26;20073;-61
2024/05/03 02:25:19;;;;;;;;;;;;;;;12.37;100.00;100884.13;5426784;26;19963;-60
2024/05/03 02:27:44;;;;;;;;;;;;;;;12.23;100.00;100872.31;5418065;26;19967;-61
2024/05/03 02:30:09;;;;;;;;;;;;;;;12.41;100.00;100875.38;5443489;26;19967;-61
2024/05/03 02:32:34;;;;;;;;;;;;;;;12.36;100.00;100882.31;5443998;26;20372;-63
2024/05/03 02:34:59;;;;;;;;;;;;;;;12.34;100.00;100876.09;5424711;26;19974;-61
2024/05/03 02:37:24;;;;;;;;;;;;;;;12.31;100.00;100880.41;5429950;26;20099;-60
2024/05/03 02:39:50;;;;;;;;;;;;;;;12.32;100.00;100877.81;5430464;26;19928;-63
2024/05/03 02:42:15;;;;;;;;;;;;;;;12.42;100.00;100871.88;5436029;26;19936;-62
2024/05/03 02:44:40;;;;;;;;;;;;;;;12.37;100.00;100870.84;5436728;26;19928;-62
2024/05/03 02:47:06;;;;;;;;;;;;;;;12.37;100.00;100870.84;5438663;26;19993;-61
2024/05/03 02:49:31;;;;;;;;;;;;;;;12.26;100.00;100872.38;5461747;26;20443;-62
2024/05/03 02:51:56;;;;;;;;;;;;;;;12.32;100.00;100872.50;5447909;26;19928;-62
2024/05/03 02:54:22;;;;;;;;;;;;;;;12.24;100.00;100871.47;5457223;26;19961;-62
2024/05/03 02:56:47;;;;;;;;;;;;;;;12.14;100.00;100873.00;5451769;26;19997;-62
2024/05/03 02:59:12;;;;;;;;;;;;;;;12.15;100.00;100873.88;5447233;26;19929;-62
2024/05/03 03:01:41;;;;;;;;;;;;;;;12.02;100.00;100867.41;5408326;26;19929;-60
2024/05/03 03:04:07;;;;;;;;;;;;;;;12.06;100.00;100863.09;5432064;26;19929;-63
2024/05/03 03:06:32;;;;;;;;;;;;;;;11.95;100.00;100865.47;5445076;26;19939;-61
2024/05/03 03:08:57;;;;;;;;;;;;;;;11.92;100.00;100867.19;5444827;26;20360;-60
2024/05/03 03:11:22;;;;;;;;;;;;;;;11.88;100.00;100870.59;5442549;26;19929;-61
2024/05/03 03:13:47;;;;;;;;;;;;;;;11.93;100.00;100877.81;5424040;26;19963;-61
2024/05/03 03:16:12;;;;;;;;;;;;;;;11.81;100.00;100873.09;5480583;26;20023;-60
2024/05/03 03:18:38;;;;;;;;;;;;;;;11.88;100.00;100870.59;5454071;26;19936;-62
2024/05/03 03:21:03;;;;;;;;;;;;;;;11.83;100.00;100873.13;5445396;26;19933;-60
2024/05/03 03:23:28;;;;;;;;;;;;;;;11.87;100.00;100867.06;5442172;26;19962;-60
2024/05/03 03:25:54;;;;;;;;;;;;;;;11.88;100.00;100873.25;5447666;26;19960;-60
2024/05/03 03:28:19;;;;;;;;;;;;;;;11.95;100.00;100859.31;5465161;26;19959;-60
2024/05/03 03:30:44;;;;;;;;;;;;;;;11.77;100.00;100871.25;5432110;26;20415;-61
2024/05/03 03:33:10;;;;;;;;;;;;;;;11.78;100.00;100867.72;5413534;26;19937;-61
2024/05/03 03:35:35;;;;;;;;;;;;;;;11.75;100.00;100867.66;5422766;26;20217;-60
2024/05/03 03:38:00;;;;;;;;;;;;;;;11.66;100.00;100867.41;5422229;26;20021;-60
2024/05/03 03:40:25;;;;;;;;;;;;;;;11.74;100.00;100871.16;5420074;26;19935;-60
2024/05/03 03:42:51;;;;;;;;;;;;;;;11.63;100.00;100875.25;5426239;26;19929;-59
2024/05/03 03:45:16;;;;;;;;;;;;;;;11.67;100.00;100874.50;5426542;26;19937;-62
2024/05/03 03:47:42;;;;;;;;;;;;;;;11.69;100.00;100867.47;5379951;26;19929;-61
2024/05/03 03:50:10;;;;;;;;;;;;;;;11.77;100.00;100868.63;5427231;26;19939;-60
2024/05/03 03:52:36;;;;;;;;;;;;;;;11.62;100.00;100876.13;5414303;26;19967;-61
2024/05/03 03:55:01;;;;;;;;;;;;;;;11.61;100.00;100869.03;5421641;26;19929;-58
2024/05/03 03:57:27;;;;;;;;;;;;;;;11.54;100.00;100874.16;5421326;26;20434;-61
2024/05/03 03:59:52;;;;;;;;;;;;;;;11.67;100.00;100868.28;5438507;26;19962;-61
2024/05/03 04:02:17;;;;;;;;;;;;;;;11.50;100.00;100871.41;5411325;26;20352;-60
2024/05/03 04:04:42;;;;;;;;;;;;;;;11.61;100.00;100863.72;5409928;26;19993;-61
2024/05/03 04:07:10;;;;;;;;;;;;;;;11.59;100.00;100865.47;5385081;26;19928;-60
2024/05/03 04:09:35;;;;;;;;;;;;;;;11.57;100.00;100867.19;5408300;26;20410;-60
2024/05/03 04:12:00;;;;;;;;;;;;;;;11.40;100.00;100821.78;5400571;26;19959;-61
2024/05/03 04:14:25;;;;;;;;;;;;;;;11.67;100.00;100863.91;5421428;26;20017;-59
2024/05/03 04:16:50;;;;;;;;;;;;;;;11.59;100.00;100862.81;5431684;26;19933;-60
2024/05/03 04:19:16;;;;;;;;;;;;;;;11.69;100.00;100872.78;5408358;26;19929;-61
2024/05/03 04:21:41;;;;;;;;;;;;;;;11.75;100.00;100866.75;5407848;26;19929;-59
2024/05/03 04:24:06;;;;;;;;;;;;;;;11.62;100.00;100876.13;5426483;26;19976;-61
2024/05/03 04:26:31;;;;;;;;;;;;;;;11.98;100.00;100859.34;5428175;26;19940;-60
2024/05/03 04:28:56;;;;;;;;;;;;;;;12.15;100.00;100856.22;5435938;26;19969;-63
2024/05/03 04:31:22;;;;;;;;;;;;;;;12.03;100.00;100863.00;5436909;26;19944;-59
2024/05/03 04:33:48;;;;;;;;;;;;;;;11.81;100.00;100873.09;5467456;26;19981;-60
2024/05/03 04:36:13;;;;;;;;;;;;;;;12.07;100.00;100859.59;5437847;26;19968;-60
2024/05/03 04:38:38;;;;;;;;;;;;;;;12.00;100.00;100863.84;5436229;26;19966;-59
2024/05/03 04:41:03;;;;;;;;;;;;;;;12.08;100.00;100861.38;5458447;26;19955;-58
2024/05/03 04:43:29;;;;;;;;;;;;;;;12.05;100.00;100863.94;5461058;26;19940;-60
2024/05/03 04:45:55;;;;;;;;;;;;;;;12.11;100.00;100866.75;5445453;26;19928;-59
2024/05/03 04:48:20;;;;;;;;;;;;;;;12.44;100.00;100867.50;5440566;26;19982;-59
2024/05/03 04:50:45;;;;;;;;;;;;;;;12.80;100.00;100856.75;5456733;26;20732;-61
2024/05/03 04:53:10;;;;;;;;;;;;;;;12.82;100.00;100851.44;5458284;26;19936;-59
2024/05/03 04:55:35;;;;;;;;;;;;;;;13.05;100.00;100847.50;5447396;26;19947;-60
2024/05/03 04:58:00;;;;;;;;;;;;;;;13.31;100.00;100848.00;5463048;26;19958;-58
2024/05/03 05:00:26;;;;;;;;;;;;;;;12.77;100.00;100855.78;5454773;26;19929;-58
2024/05/03 05:02:51;;;;;;;;;;;;;;;12.63;100.00;100857.28;5459034;26;20423;-60
2024/05/03 05:05:16;;;;;;;;;;;;;;;12.54;100.00;100864.16;5431594;26;19936;-60
2024/05/03 05:07:41;;;;;;;;;;;;;;;12.38;100.00;100864.69;5468319;26;20360;-58
2024/05/03 05:10:07;;;;;;;;;;;;;;;12.65;100.00;100867.03;5446216;26;20420;-60
2024/05/03 05:12:33;;;;;;;;;;;;;;;12.77;100.00;100861.09;5450203;26;20349;-58
2024/05/03 05:14:58;;;;;;;;;;;;;;;12.76;100.00;100859.31;5452232;26;20311;-59
2024/05/03 05:17:23;;;;;;;;;;;;;;;12.61;100.00;100865.19;5456800;26;19975;-59
2024/05/03 05:19:50;;;;;;;;;;;;;;;12.69;100.00;100852.97;5453767;26;20376;-58
2024/05/03 05:22:15;;;;;;;;;;;;;;;12.87;100.00;100857.75;5458767;26;19966;-59
2024/05/03 05:24:42;;;;;;;;;;;;;;;12.97;100.00;100859.72;5449246;26;20280;-62
2024/05/03 05:27:09;;;;;;;;;;;;;;;13.27;100.00;100858.53;5446770;26;20122;-59
2024/05/03 05:29:35;;;;;;;;;;;;;;;13.62;100.00;100852.06;5446736;26;20401;-59
2024/05/03 05:32:00;;;;;;;;;;;;;;;13.62;100.00;100854.72;5470694;26;20020;-60
2024/05/03 05:34:25;;;;;;;;;;;;;;;13.22;100.00;100856.69;5446860;26;19928;-62
2024/05/03 05:36:51;;;;;;;;;;;;;;;13.52;100.00;100842.16;5449076;26;19929;-61
2024/05/03 05:39:16;;;;;;;;;;;;;;;13.72;100.00;100827.44;5429384;26;19937;-61
2024/05/03 05:41:41;;;;;;;;;;;;;;;14.63;100.00;100833.16;5441847;26;20572;-60
2024/05/03 05:44:07;;;;;;;;;;;;;;;14.37;100.00;100808.91;5440009;26;20648;-62
2024/05/03 05:46:33;;;;;;;;;;;;;;;15.04;100.00;100841.63;5457390;26;20434;-61
2024/05/03 05:48:58;;;;;;;;;;;;;;;15.85;100.00;100824.63;5453867;26;19939;-61
2024/05/03 05:51:23;;;;;;;;;;;;;;;15.25;100.00;100836.50;5446274;26;19942;-60
2024/05/03 05:53:56;;;;;;;;;;;;;;;14.83;100.00;100841.38;5435594;26;20341;-60
2024/05/03 05:56:21;;;;;;;;;;;;;;;14.09;100.00;100828.88;5446075;26;20308;-61
2024/05/03 05:58:46;;;;;;;;;;;;;;;13.93;100.00;100833.09;5440959;26;20380;-61
2024/05/03 06:01:12;;;;;;;;;;;;;;;13.81;100.00;100832.91;5407827;26;19928;-61
2024/05/03 06:03:37;;;;;;;;;;;;;;;14.12;100.00;100833.34;5431413;26;19973;-62
2024/05/03 06:06:02;;;;;;;;;;;;;;;14.06;100.00;100827.94;5432276;26;19968;-60
2024/05/03 06:08:27;;;;;;;;;;;;;;;14.31;100.00;100826.53;5437769;26;20430;-60
2024/05/03 06:10:52;;;;;;;;;;;;;;;14.21;100.00;100825.50;5447505;26;19928;-59
2024/05/03 06:13:18;;;;;;;;;;;;;;;14.39;100.00;100811.53;5436065;26;20326;-59
2024/05/03 06:15:43;;;;;;;;;;;;;;;14.84;100.00;100821.88;5457476;26;19936;-60
2024/05/03 06:18:08;;;;;;;;;;;;;;;15.07;100.00;100804.38;5448693;26;19970;-61
2024/05/03 06:20:33;;;;;;;;;;;;;;;14.94;100.00;100813.13;5443355;26;19970;-59
2024/05/03 06:22:59;;;;;;;;;;;;;;;15.26;100.00;100805.44;5452167;26;19974;-59
2024/05/03 06:25:24;;;;;;;;;;;;;;;15.70;100.00;100804.97;5452585;26;19936;-59
2024/05/03 06:27:49;;;;;;;;;;;;;;;15.39;100.00;100806.47;5454804;26;19932;-59
2024/05/03 06:30:14;;;;;;;;;;;;;;;15.95;100.00;100805.13;5438878;26;20001;-60
2024/05/03 06:32:39;;;;;;;;;;;;;;;15.98;100.00;100809.56;5441031;26;20407;-60
2024/05/03 06:35:05;;;;;;;;;;;;;;;16.13;100.00;100803.44;5427286;26;19947;-59
2024/05/03 06:37:31;;;;;;;;;;;;;;;16.55;100.00;100803.66;5427755;26;20017;-63
2024/05/03 06:40:02;;;;;;;;;;;;;;;16.27;100.00;100807.09;5434978;26;19928;-62
2024/05/03 06:42:27;;;;;;;;;;;;;;;16.81;100.00;100800.19;5398908;26;19985;-60
2024/05/03 06:44:52;;;;;;;;;;;;;;;17.20;100.00;100789.59;5438664;26;19929;-62
2024/05/03 06:47:17;;;;;;;;;;;;;;;17.14;100.00;100794.94;5432229;26;20498;-61
2024/05/03 06:49:43;;;;;;;;;;;;;;;17.17;100.00;100794.91;5432388;26;19958;-61
2024/05/03 06:52:08;;;;;;;;;;;;;;;17.43;100.00;100786.03;5425566;26;19967;-62
2024/05/03 06:54:33;;;;;;;;;;;;;;;17.05;100.00;100802.94;5432376;26;19993;-61
2024/05/03 06:56:58;;;;;;;;;;;;;;;17.18;100.00;100796.72;5429313;26;20446;-61
2024/05/03 06:59:25;;;;;;;;;;;;;;;17.20;100.00;100800.28;5431947;26;19959;-61
2024/05/03 07:01:50;;;;;;;;;;;;;;;17.67;100.00;100794.06;5412136;26;20004;-61
2024/05/03 07:04:16;;;;;;;;;;;;;;;17.50;100.00;100793.16;5400918;26;19928;-61
2024/05/03 07:06:41;;;;;;;;;;;;;;;17.90;100.00;100800.28;5435765;26;19981;-61
2024/05/03 07:09:06;;;;;;;;;;;;;;;17.94;100.00;100796.72;5431021;26;19937;-64
2024/05/03 07:11:31;;;;;;;;;;;;;;;18.04;100.00;100793.09;5438054;26;20068;-64
2024/05/03 07:13:56;;;;;;;;;;;;;;;17.83;100.00;100806.56;5432094;26;19986;-61
2024/05/03 07:16:22;;;;;;;;;;;;;;;18.09;100.00;100802.03;5402005;26;19937;-63
2024/05/03 07:18:47;;;;;;;;;;;;;;;18.18;100.00;100808.25;5453149;26;19961;-64
2024/05/03 07:21:12;;;;;;;;;;;;;;;18.22;100.00;100797.50;5442649;26;19937;-63
2024/05/03 07:23:37;;;;;;;;;;;;;;;18.92;100.00;100801.69;5435309;26;20364;-63
2024/05/03 07:26:05;;;;;;;;;;;;;;;18.70;100.00;100792.91;5448051;26;21427;-64
2024/05/03 07:28:30;;;;;;;;;;;;;;;18.53;100.00;100798.28;5449387;26;20494;-63
2024/05/03 07:30:57;;;;;;;;;;;;;;;19.32;100.00;100791.59;5442906;26;19929;-63
2024/05/03 07:33:22;;;;;;;;;;;;;;;19.53;100.00;100795.94;5443320;26;19940;-63
2024/05/03 07:35:47;;;;;;;;;;;;;;;19.67;100.00;100783.28;5439932;26;19967;-63
2024/05/03 07:38:12;;;;;;;;;;;;;;;19.97;100.00;100787.44;5433641;26;19929;-62
2024/05/03 07:40:39;;;;;;;;;;;;;;;20.21;100.00;100780.94;5416262;26;19958;-66
2024/05/03 07:43:04;;;;;;;;;;;;;;;19.98;100.00;100784.75;5453257;26;19974;-69
2024/05/03 07:45:29;;;;;;;;;;;;;;;20.06;100.00;100790.94;5447516;26;20254;-61
2024/05/03 07:47:54;;;;;;;;;;;;;;;20.15;100.00;100785.44;5454901;26;20322;-63
2024/05/03 07:50:19;;;;;;;;;;;;;;;20.32;100.00;100773.63;5446511;26;19981;-62
2024/05/03 07:52:45;;;;;;;;;;;;;;;20.26;100.00;100784.47;5411010;26;20664;-63
2024/05/03 07:55:10;;;;;;;;;;;;;;;20.43;100.00;100783.34;5441084;26;19936;-63
2024/05/03 07:57:35;;;;;;;;;;;;;;;20.19;100.00;100783.63;5460155;26;19936;-61
2024/05/03 08:00:00;;;;;;;;;;;;;;;20.60;100.00;100779.59;5461131;26;19980;-62
2024/05/03 08:02:25;;;;;;;;;;;;;;;20.36;100.00;100778.06;5436989;26;20504;-63
2024/05/03 08:04:50;;;;;;;;;;;;;;;20.31;100.00;100778.09;5431131;26;20827;-66
2024/05/03 08:07:16;;;;;;;;;;;;;;;20.22;100.00;100782.72;5449470;26;19963;-62
2024/05/03 08:09:41;;;;;;;;;;;;;;;20.33;100.00;100780.78;5439173;26;20530;-63
2024/05/03 08:12:08;;;;;;;;;;;;;;;20.38;100.00;100776.28;5438228;26;21214;-64
2024/05/03 08:14:34;;;;;;;;;;;;;;;20.60;100.00;100774.22;5445025;26;19946;-62
2024/05/03 08:16:59;;;;;;;;;;;;;;;20.86;100.00;100772.03;5416325;26;19936;-61
2024/05/03 08:19:25;;;;;;;;;;;;;;;21.22;100.00;100769.75;5443389;26;19936;-61
2024/05/03 08:21:50;;;;;;;;;;;;;;;21.47;100.00;100761.22;5441235;26;19936;-66
2024/05/03 08:24:15;;;;;;;;;;;;;;;21.61;100.00;100768.19;5446618;26;19962;-65
2024/05/03 08:26:40;;;;;;;;;;;;;;;21.41;100.00;100766.72;5443304;26;19966;-65
2024/05/03 08:29:05;;;;;;;;;;;;;;;21.66;100.00;100772.56;5437648;26;19971;-63
2024/05/03 08:31:31;;;;;;;;;;;;;;;21.81;100.00;100771.41;5442185;26;20304;-62
2024/05/03 08:33:56;;;;;;;;;;;;;;;21.87;100.00;100761.41;5456694;26;19971;-61
2024/05/03 08:36:21;;;;;;;;;;;;;;;21.75;100.00;100761.63;5440167;26;19941;-62
2024/05/03 08:38:46;;;;;;;;;;;;;;;21.85;100.00;100756.97;5440524;26;19970;-64
2024/05/03 08:41:11;;;;;;;;;;;;;;;22.08;100.00;100741.28;5444804;26;19960;-61
2024/05/03 08:43:40;;;;;;;;;;;;;;;22.13;100.00;100742.09;5440878;26;21006;-62
2024/05/03 08:46:05;;;;;;;;;;;;;;;22.01;100.00;100746.81;5434773;26;20076;-64
2024/05/03 08:48:35;;;;;;;;;;;;;;;22.13;100.00;100738.53;5448324;26;20418;-64
2024/05/03 08:51:02;;;;;;;;;;;;;;;22.01;100.00;100741.44;5455412;26;19967;-62
2024/05/03 08:53:27;;;;;;;;;;;;;;;22.41;100.00;100746.91;5441764;26;20046;-64
2024/05/03 08:55:52;;;;;;;;;;;;;;;22.43;100.00;100753.16;5439487;26;20375;-64
2024/05/03 08:58:18;;;;;;;;;;;;;;;22.38;100.00;100752.34;5451793;26;19967;-62
2024/05/03 09:00:44;;;;;;;;;;;;;;;22.32;100.00;100744.41;5453472;26;19957;-63
2024/05/03 09:03:09;;;;;;;;;;;;;;;22.35;100.00;100741.63;5446771;26;19960;-64
2024/05/03 09:05:34;;;;;;;;;;;;;;;22.47;100.00;100738.69;5445132;26;19951;-63
2024/05/03 09:08:03;;;;;;;;;;;;;;;22.63;100.00;100742.81;5453208;26;20429;-63
2024/05/03 09:10:31;;;;;;;;;;;;;;;22.78;100.00;100726.34;5448017;26;19955;-64
2024/05/03 09:12:56;;;;;;;;;;;;;;;23.06;100.00;100731.06;5437889;26;19937;-64
2024/05/03 09:15:21;;;;;;;;;;;;;;;23.19;100.00;100721.78;5440928;26;19928;-65
2024/05/03 09:17:46;;;;;;;;;;;;;;;23.28;100.00;100726.91;5451661;26;19962;-63
2024/05/03 09:20:12;;;;;;;;;;;;;;;23.49;100.00;100728.19;5451607;26;19958;-62
2024/05/03 09:22:38;;;;;;;;;;;;;;;23.77;100.00;100720.25;5446600;26;19946;-63
2024/05/03 09:25:03;;;;;;;;;;;;;;;23.72;100.00;100689.84;5417183;26;19929;-65
2024/05/03 09:27:28;;;;;;;;;;;;;;;23.98;100.00;100713.38;5443953;26;19983;-62
2024/05/03 09:29:54;;;;;;;;;;;;;;;24.15;100.00;100725.47;5438806;26;19935;-66
2024/05/03 09:32:19;;;;;;;;;;;;;;;23.83;100.00;100712.00;5447787;26;19929;-62
2024/05/03 09:34:45;;;;;;;;;;;;;;;23.87;100.00;100711.00;5455144;26;20355;-63
2024/05/03 09:37:11;;;;;;;;;;;;;;;23.97;100.00;100712.50;5437043;26;19936;-62
2024/05/03 09:39:39;;;;;;;;;;;;;;;23.73;100.00;100705.06;5433334;26;19943;-62
2024/05/03 09:42:04;;;;;;;;;;;;;;;23.91;100.00;100713.53;5458513;26;20391;-61
2024/05/03 09:44:30;;;;;;;;;;;;;;;24.05;100.00;100699.69;5446887;26;19935;-62
2024/05/03 09:46:57;;;;;;;;;;;;;;;24.20;100.00;100698.34;5440915;26;20411;-63
2024/05/03 09:49:27;;;;;;;;;;;;;;;24.04;100.00;100708.69;5446842;26;20345;-64
2024/05/03 09:52:00;;;;;;;;;;;;;;;23.90;100.00;100702.78;5448572;26;19929;-63
2024/05/03 09:54:27;;;;;;;;;;;;;;;24.03;100.00;100701.53;5441014;26;19940;-61
2024/05/03 09:56:53;;;;;;;;;;;;;;;24.44;100.00;100702.13;5436932;26;19937;-61
2024/05/03 09:59:20;;;;;;;;;;;;;;;24.54;100.00;100687.44;5440559;26;20403;-62
2024/05/03 10:01:46;;;;;;;;;;;;;;;24.59;100.00;100690.84;5443292;26;19928;-62
2024/05/03 10:04:12;;;;;;;;;;;;;;;24.63;100.00;100697.94;5436279;26;20778;-61
2024/05/03 10:06:40;;;;;;;;;;;;;;;24.68;100.00;100701.38;5445334;26;19936;-62
2024/05/03 10:09:06;;;;;;;;;;;;;;;24.43;100.00;100694.97;5453795;26;20313;-61
2024/05/03 10:11:31;;;;;;;;;;;;;;;24.74;100.00;100698.50;5403653;26;19996;-62
2024/05/03 10:13:57;;;;;;;;;;;;;;;24.62;100.00;100696.16;5444909;26;19936;-64
2024/05/03 10:16:23;;;;;;;;;;;;;;;24.68;100.00;100685.16;5447181;26;19946;-61
2024/05/03 10:18:48;;;;;;;;;;;;;;;24.92;100.00;100689.78;5452472;26;20063;-61
2024/05/03 10:21:32;;;;;;;;;;;;;;;25.18;100.00;100691.66;5408008;26;20253;-62
2024/05/03 10:24:00;;;;;;;;;;;;;;;25.45;100.00;100684.44;5442221;26;19957;-61
2024/05/03 10:26:27;;;;;;;;;;;;;;;25.41;100.00;100682.75;5434737;26;20424;-61
2024/05/03 10:28:56;;;;;;;;;;;;;;;25.55;100.00;100693.09;5464878;26;19935;-63
2024/05/03 10:31:22;;;;;;;;;;;;;;;25.63;100.00;100683.78;5437619;26;19999;-62
2024/05/03 10:33:53;;;;;;;;;;;;;;;25.70;100.00;100684.44;5446513;26;19993;-62
2024/05/03 10:36:18;;;;;;;;;;;;;;;25.93;100.00;100680.91;5444266;26;19928;-61
2024/05/03 10:38:43;;;;;;;;;;;;;;;25.47;100.00;100671.69;5448052;26;20394;-62
2024/05/03 10:41:11;;;;;;;;;;;;;;;25.48;100.00;100683.41;5432040;26;20371;-62
2024/05/03 10:43:37;;;;;;;;;;;;;;;25.76;100.00;100672.53;5441643;26;19937;-62
2024/05/03 10:46:02;;;;;;;;;;;;;;;25.57;100.00;100678.56;5461087;26;19992;-66
2024/05/03 10:48:27;;;;;;;;;;;;;;;25.53;100.00;100687.72;5449364;26;20245;-64
2024/05/03 10:50:52;;;;;;;;;;;;;;;25.70;100.00;100683.56;5444307;26;19937;-62
2024/05/03 10:53:18;;;;;;;;;;;;;;;25.90;100.00;100679.19;5430013;26;19978;-65
2024/05/03 10:55:44;;;;;;;;;;;;;;;26.07;100.00;100673.16;5451515;26;20303;-64
2024/05/03 10:58:09;;;;;;;;;;;;;;;26.43;100.00;100670.00;5454823;26;19927;-63
2024/05/03 11:00:35;;;;;;;;;;;;;;;25.92;100.00;100673.72;5429498;26;20311;-63
2024/05/03 11:03:01;;;;;;;;;;;;;;;25.77;100.00;100685.13;5440501;26;20394;-63
2024/05/03 11:05:26;;;;;;;;;;;;;;;25.96;100.00;100687.09;5437262;26;19931;-64
2024/05/03 11:07:52;;;;;;;;;;;;;;;26.18;100.00;100676.31;5448578;26;19935;-62
2024/05/03 11:10:17;;;;;;;;;;;;;;;26.46;100.00;100681.59;5444666;26;19935;-64
2024/05/03 11:12:42;;;;;;;;;;;;;;;26.38;100.00;100689.16;5452319;26;19940;-61
2024/05/03 11:15:08;;;;;;;;;;;;;;;26.54;100.00;100678.56;5443515;26;19928;-64
2024/05/03 11:17:33;;;;;;;;;;;;;;;26.57;100.00;100675.75;5449461;26;20439;-62
2024/05/03 11:19:59;;;;;;;;;;;;;;;26.16;100.00;100672.78;5436257;26;19932;-69
2024/05/03 11:22:25;;;;;;;;;;;;;;;26.20;100.00;100674.44;5447396;26;19974;-67
2024/05/03 11:25:03;;;;;;;;;;;;;;;26.31;100.00;100661.41;5447109;26;20009;-63
2024/05/03 11:27:29;;;;;;;;;;;;;;;26.48;100.00;100668.00;5445423;26;19936;-67
2024/05/03 11:29:54;;;;;;;;;;;;;;;26.35;100.00;100673.00;5449251;26;19929;-67
2024/05/03 11:32:27;;;;;;;;;;;;;;;26.32;100.00;100665.00;5445423;26;19945;-65
2024/05/03 11:34:52;;;;;;;;;;;;;;;26.43;100.00;100675.41;5447889;26;19974;-65
2024/05/03 11:37:17;;;;;;;;;;;;;;;26.81;100.00;100672.06;5415393;26;19956;-66
2024/05/03 11:39:43;;;;;;;;;;;;;;;26.83;100.00;100670.19;5431291;26;20280;-64
2024/05/03 11:42:08;;;;;;;;;;;;;;;26.71;100.00;100673.34;5435085;26;19928;-65
2024/05/03 11:44:33;;;;;;;;;;;;;;;26.76;100.00;100671.34;5447086;26;19936;-67
2024/05/03 11:46:59;;;;;;;;;;;;;;;26.88;100.00;100661.81;5436971;26;19957;-65
2024/05/03 11:49:24;;;;;;;;;;;;;;;26.89;100.00;100664.47;5456820;26;19935;-60
2024/05/03 11:51:49;;;;;;;;;;;;;;;26.80;100.00;100659.44;5455509;26;20753;-67
2024/05/03 11:54:14;;;;;;;;;;;;;;;26.55;100.00;100658.66;5451516;26;19935;-61
2024/05/03 11:56:39;;;;;;;;;;;;;;;26.70;100.00;100652.63;5441987;26;19936;-69
2024/05/03 11:59:05;;;;;;;;;;;;;;;26.59;100.00;100657.59;5458728;26;19940;-66
2024/05/03 12:01:30;;;;;;;;;;;;;;;27.12;100.00;100650.00;5454326;26;19941;-61
2024/05/03 12:03:55;;;;;;;;;;;;;;;27.28;100.00;100655.63;5453846;26;19981;-68
2024/05/03 12:06:20;;;;;;;;;;;;;;;27.29;100.00;100652.84;5453013;26;19932;-67
2024/05/03 12:08:46;;;;;;;;;;;;;;;26.79;100.00;100652.25;5448899;26;19936;-65
2024/05/03 12:11:11;;;;;;;;;;;;;;;27.11;100.00;100645.50;5448644;26;20032;-65
2024/05/03 12:13:36;;;;;;;;;;;;;;;27.08;100.00;100644.75;5445635;26;19943;-68
2024/05/03 12:16:01;;;;;;;;;;;;;;;27.38;100.00;100657.00;5462722;26;19939;-62
2024/05/03 12:18:27;;;;;;;;;;;;;;;27.26;100.00;100646.69;5458987;26;19956;-65
2024/05/03 12:20:52;;;;;;;;;;;;;;;27.35;100.00;100651.72;5445730;26;19962;-65